Low temp

Not for real navigation. The accuracy of this data is not assured See disclaimer for more information



ICAO NAME COUNTRY WIND Kt GUST Kt VIS m TEMP/DEW C BARO METAR
KBKS Falfurrias, Brooks County Airp TX United States 10 14 1600 -39/0 29.75 KBKS 262135Z AUTO 12010G14KT 1 0.25SM SCT011 BKN021 OVC030 M39/ A2975 RMK AO1 P0020 T1388
NZFX 4 0 9999 -37/-41 28.88 NZFX 262055Z 23004KT 9999 FEW030 FEW090 SCT140 M37/M41 A2888 RMK SLP779 RCRNR GRID04004KT SDG/HDG
NZCM Williams Field Antarctica 10 0 9999 -23/-36 28.84 NZCM 262055Z 34010KT 9999 FEW080 SCT150 M23/M36 A2884 RMK SLP774 FATA MORGANA SE-SW-NW
CWEU Eureka, N. W. T. Canada 3 0 24000 -16/-18 29.92 CWEU 262100Z 07003KT 15SM FEW019 FEW090 FEW150 M16/M18 A2992 RMK SC1AC1AS1 SC TR AC TR SLP135
ZMUB Ulan-Bator Mongolia 1 0 9999 -7/-9 30.15 ZMUB 262130Z VRB01KT CAVOK M07/M09 Q1021 NOSIG RMK QFE658.1 88

Show more